PWSweather.com
Personal Weather Stations
Station Observations
SUBOTICARS
SuboticaYU

SuboticaYU

Lat: 46.1296717, Lon: 19.641551

Elevation: 361

Station Type: Nexus

http://sumeteo.info

High Low Average
Temperature 32.9°F0.5°C 25.7°F-3.5°C 29.3°F-1.5°C
Dew Point 29.2°F-1.6°C 22.1°F-5.5°C 25.9°F-3.4°C
Winds 6.9 mph 11.1 kmh Calm Calm 3.0 mph E4.8 kmh E
Wind Gusts 8.1 mph13.0 kmh -- 4.0 mph6.4 kmh
Humidity 94% 83% 87%
Pressure 29.33 in993.2 mb 29.19 in988.5 mb -
Precipitation 0.10 in2.5 mm - -
Hour Temp Dew Point Humidity Winds Wind Gusts Pressure Precip Precip Rate Daily Precip Total
12:00 AM 27.1°F-2.7°C 23.8°F-4.6°C 87% 5.8 mph NNE9.3 kmh NNE 5.8 mph9.3 kmh 29.33 in993.2 mb - 0.00 in0.0 mm 0.00 in0.0 mm
12:10 AM 27.0°F-2.8°C 23.6°F-4.7°C 87% 2.3 mph NE3.7 kmh NE 3.5 mph5.6 kmh 29.33 in993.2 mb - 0.01 in0.3 mm 0.01 in0.3 mm
12:15 AM 27.0°F-2.8°C 23.6°F-4.7°C 87% 3.5 mph ENE5.6 kmh ENE 3.5 mph5.6 kmh 29.33 in993.2 mb - 0.01 in0.3 mm 0.01 in0.3 mm
12:20 AM 27.0°F-2.8°C 23.6°F-4.7°C 87% 3.5 mph NE5.6 kmh NE 5.8 mph9.3 kmh 29.33 in993.2 mb - 0.01 in0.3 mm 0.01 in0.3 mm
12:25 AM 26.8°F-2.9°C 23.2°F-4.9°C 86% 4.6 mph NE7.4 kmh NE 4.6 mph7.4 kmh 29.33 in993.2 mb - 0.01 in0.3 mm 0.01 in0.3 mm
12:30 AM 26.8°F-2.9°C 23.2°F-4.9°C 86% 4.6 mph NE7.4 kmh NE 5.8 mph9.3 kmh 29.32 in992.9 mb - 0.01 in0.3 mm 0.01 in0.3 mm
12:35 AM 26.8°F-2.9°C 23.4°F-4.8°C 87% 3.5 mph NE5.6 kmh NE 4.6 mph7.4 kmh 29.32 in992.9 mb - 0.02 in0.5 mm 0.02 in0.5 mm
12:40 AM 26.8°F-2.9°C 23.4°F-4.8°C 87% 3.5 mph NNE5.6 kmh NNE 3.5 mph5.6 kmh 29.32 in992.9 mb - 0.02 in0.5 mm 0.02 in0.5 mm
12:45 AM 26.8°F-2.9°C 23.4°F-4.8°C 87% 3.5 mph NE5.6 kmh NE 4.6 mph7.4 kmh 29.31 in992.6 mb - 0.02 in0.5 mm 0.02 in0.5 mm
12:50 AM 26.8°F-2.9°C 23.4°F-4.8°C 87% 4.6 mph NE7.4 kmh NE 5.8 mph9.3 kmh 29.31 in992.6 mb - 0.02 in0.5 mm 0.02 in0.5 mm
12:55 AM 26.8°F-2.9°C 23.4°F-4.8°C 87% 4.6 mph NE7.4 kmh NE 4.6 mph7.4 kmh 29.31 in992.6 mb - 0.02 in0.5 mm 0.02 in0.5 mm
01:00 AM 26.8°F-2.9°C 23.4°F-4.8°C 87% 5.8 mph NE9.3 kmh NE 6.9 mph11.1 kmh 29.31 in992.6 mb - 0.02 in0.5 mm 0.02 in0.5 mm
01:10 AM 26.6°F-3.0°C 23.3°F-4.8°C 87% 3.5 mph ENE5.6 kmh ENE 4.6 mph7.4 kmh 29.31 in992.6 mb - 0.01 in0.3 mm 0.02 in0.5 mm
01:15 AM 26.6°F-3.0°C 23.3°F-4.8°C 87% 3.5 mph NNE5.6 kmh NNE 3.5 mph5.6 kmh 29.30 in992.2 mb - 0.01 in0.3 mm 0.02 in0.5 mm
01:20 AM 26.6°F-3.0°C 23.2°F-4.9°C 87% 4.6 mph NE7.4 kmh NE 5.8 mph9.3 kmh 29.30 in992.2 mb - 0.01 in0.3 mm 0.02 in0.5 mm
01:25 AM 26.4°F-3.1°C 23.1°F-4.9°C 87% 3.5 mph NNE5.6 kmh NNE 4.6 mph7.4 kmh 29.30 in992.2 mb - 0.01 in0.3 mm 0.02 in0.5 mm
01:30 AM 26.4°F-3.1°C 22.8°F-5.1°C 86% 3.5 mph ENE5.6 kmh ENE 3.5 mph5.6 kmh 29.30 in992.2 mb - 0.02 in0.5 mm 0.03 in0.8 mm
01:35 AM 26.2°F-3.2°C 22.6°F-5.2°C 86% 3.5 mph NE5.6 kmh NE 3.5 mph5.6 kmh 29.30 in992.2 mb - 0.01 in0.3 mm 0.03 in0.8 mm
01:40 AM 26.2°F-3.2°C 22.6°F-5.2°C 86% 2.3 mph NNE3.7 kmh NNE 3.5 mph5.6 kmh 29.30 in992.2 mb - 0.01 in0.3 mm 0.03 in0.8 mm
01:45 AM 26.2°F-3.2°C 22.6°F-5.2°C 86% 3.5 mph NE5.6 kmh NE 4.6 mph7.4 kmh 29.29 in991.9 mb - 0.01 in0.3 mm 0.03 in0.8 mm
01:50 AM 26.2°F-3.2°C 22.6°F-5.2°C 86% 3.5 mph NE5.6 kmh NE 4.6 mph7.4 kmh 29.29 in991.9 mb - 0.01 in0.3 mm 0.03 in0.8 mm
01:55 AM 26.2°F-3.2°C 22.6°F-5.2°C 86% 3.5 mph NNE5.6 kmh NNE 3.5 mph5.6 kmh 29.29 in991.9 mb - 0.01 in0.3 mm 0.03 in0.8 mm
02:00 AM 26.2°F-3.2°C 22.6°F-5.2°C 86% 3.5 mph NE5.6 kmh NE 4.6 mph7.4 kmh 29.29 in991.9 mb - 0.01 in0.3 mm 0.03 in0.8 mm
02:10 AM 26.1°F-3.3°C 22.7°F-5.2°C 87% 3.5 mph NE5.6 kmh NE 3.5 mph5.6 kmh 29.29 in991.9 mb - 0.02 in0.5 mm 0.04 in1.0 mm
02:15 AM 26.1°F-3.3°C 22.4°F-5.3°C 86% 4.6 mph NE7.4 kmh NE 4.6 mph7.4 kmh 29.29 in991.9 mb - 0.02 in0.5 mm 0.04 in1.0 mm
02:20 AM 26.1°F-3.3°C 22.4°F-5.3°C 86% 4.6 mph NNE7.4 kmh NNE 4.6 mph7.4 kmh 29.29 in991.9 mb - 0.02 in0.5 mm 0.04 in1.0 mm
02:25 AM 26.1°F-3.3°C 22.4°F-5.3°C 86% 3.5 mph NE5.6 kmh NE 5.8 mph9.3 kmh 29.29 in991.9 mb - 0.02 in0.5 mm 0.04 in1.0 mm
02:30 AM 26.1°F-3.3°C 22.4°F-5.3°C 86% 2.3 mph NE3.7 kmh NE 3.5 mph5.6 kmh 29.28 in991.5 mb - 0.02 in0.5 mm 0.04 in1.0 mm
02:35 AM 25.9°F-3.4°C 22.3°F-5.4°C 86% 3.5 mph NE5.6 kmh NE 3.5 mph5.6 kmh 29.28 in991.5 mb - 0.01 in0.3 mm 0.04 in1.0 mm
02:40 AM 25.9°F-3.4°C 22.3°F-5.4°C 86% 3.5 mph NE5.6 kmh NE 5.8 mph9.3 kmh 29.28 in991.5 mb - 0.01 in0.3 mm 0.04 in1.0 mm
02:45 AM 25.8°F-3.4°C 22.2°F-5.4°C 86% 5.8 mph NE9.3 kmh NE 4.6 mph7.4 kmh 29.27 in991.2 mb - 0.02 in0.5 mm 0.05 in1.3 mm
02:50 AM 25.7°F-3.5°C 22.1°F-5.5°C 86% 3.5 mph NNE5.6 kmh NNE 4.6 mph7.4 kmh 29.27 in991.2 mb - 0.02 in0.5 mm 0.05 in1.3 mm
02:55 AM 25.7°F-3.5°C 22.1°F-5.5°C 86% 4.6 mph ENE7.4 kmh ENE 5.8 mph9.3 kmh 29.27 in991.2 mb - 0.02 in0.5 mm 0.05 in1.3 mm
03:00 AM 25.7°F-3.5°C 22.1°F-5.5°C 86% 3.5 mph NE5.6 kmh NE 5.8 mph9.3 kmh 29.27 in991.2 mb - 0.02 in0.5 mm 0.05 in1.3 mm
03:10 AM 25.7°F-3.5°C 22.1°F-5.5°C 86% 4.6 mph NNE7.4 kmh NNE 5.8 mph9.3 kmh 29.27 in991.2 mb - 0.02 in0.5 mm 0.06 in1.5 mm
03:15 AM 25.7°F-3.5°C 22.1°F-5.5°C 86% 3.5 mph NE5.6 kmh NE 3.5 mph5.6 kmh 29.26 in990.9 mb - 0.02 in0.5 mm 0.06 in1.5 mm
03:20 AM 25.7°F-3.5°C 22.1°F-5.5°C 86% 3.5 mph E5.6 kmh E 3.5 mph5.6 kmh 29.26 in990.9 mb - 0.03 in0.8 mm 0.07 in1.8 mm
03:25 AM 25.7°F-3.5°C 22.1°F-5.5°C 86% 3.5 mph N5.6 kmh N 4.6 mph7.4 kmh 29.26 in990.9 mb - 0.03 in0.8 mm 0.07 in1.8 mm
03:30 AM 25.7°F-3.5°C 22.1°F-5.5°C 86% 2.3 mph ENE3.7 kmh ENE 2.3 mph3.7 kmh 29.27 in991.2 mb - 0.04 in1.0 mm 0.08 in2.0 mm
03:35 AM 25.7°F-3.5°C 22.1°F-5.5°C 86% 4.6 mph ENE7.4 kmh ENE 3.5 mph5.6 kmh 29.27 in991.2 mb - 0.04 in1.0 mm 0.08 in2.0 mm
03:40 AM 25.7°F-3.5°C 22.1°F-5.5°C 86% 3.5 mph NE5.6 kmh NE 5.8 mph9.3 kmh 29.27 in991.2 mb - 0.04 in1.0 mm 0.08 in2.0 mm
03:45 AM 25.7°F-3.5°C 22.1°F-5.5°C 86% 3.5 mph ENE5.6 kmh ENE 3.5 mph5.6 kmh 29.25 in990.5 mb - 0.03 in0.8 mm 0.08 in2.0 mm
03:50 AM 25.9°F-3.4°C 22.3°F-5.4°C 86% 3.5 mph ENE5.6 kmh ENE 3.5 mph5.6 kmh 29.25 in990.5 mb - 0.03 in0.8 mm 0.08 in2.0 mm
03:55 AM 25.9°F-3.4°C 22.3°F-5.4°C 86% 4.6 mph NE7.4 kmh NE 4.6 mph7.4 kmh 29.25 in990.5 mb - 0.03 in0.8 mm 0.08 in2.0 mm
04:00 AM 25.9°F-3.4°C 22.3°F-5.4°C 86% 4.6 mph ENE7.4 kmh ENE 4.6 mph7.4 kmh 29.25 in990.5 mb - 0.03 in0.8 mm 0.08 in2.0 mm
04:10 AM 26.1°F-3.3°C 22.4°F-5.3°C 86% 3.5 mph NE5.6 kmh NE 4.6 mph7.4 kmh 29.25 in990.5 mb - 0.03 in0.8 mm 0.09 in2.3 mm
04:15 AM 26.1°F-3.3°C 22.4°F-5.3°C 86% 4.6 mph ENE7.4 kmh ENE 4.6 mph7.4 kmh 29.25 in990.5 mb - 0.03 in0.8 mm 0.09 in2.3 mm
04:20 AM 26.1°F-3.3°C 22.4°F-5.3°C 86% 3.5 mph ENE5.6 kmh ENE 3.5 mph5.6 kmh 29.25 in990.5 mb - 0.02 in0.5 mm 0.09 in2.3 mm
04:25 AM 26.1°F-3.3°C 22.4°F-5.3°C 86% 3.5 mph NE5.6 kmh NE 3.5 mph5.6 kmh 29.25 in990.5 mb - 0.02 in0.5 mm 0.09 in2.3 mm
04:30 AM 26.2°F-3.2°C 22.6°F-5.2°C 86% 3.5 mph NNE5.6 kmh NNE 4.6 mph7.4 kmh 29.25 in990.5 mb - 0.01 in0.3 mm 0.09 in2.3 mm
04:35 AM 26.2°F-3.2°C 22.6°F-5.2°C 86% 3.5 mph NNE5.6 kmh NNE 4.6 mph7.4 kmh 29.25 in990.5 mb - 0.02 in0.5 mm 0.10 in2.5 mm
04:40 AM 26.2°F-3.2°C 22.6°F-5.2°C 86% 3.5 mph NE5.6 kmh NE 3.5 mph5.6 kmh 29.25 in990.5 mb - 0.02 in0.5 mm 0.10 in2.5 mm
04:45 AM 26.2°F-3.2°C 22.6°F-5.2°C 86% 3.5 mph NE5.6 kmh NE 5.8 mph9.3 kmh 29.24 in990.2 mb - 0.02 in0.5 mm 0.10 in2.5 mm
04:50 AM 26.2°F-3.2°C 22.6°F-5.2°C 86% 3.5 mph NE5.6 kmh NE 5.8 mph9.3 kmh 29.24 in990.2 mb - 0.02 in0.5 mm 0.10 in2.5 mm
04:55 AM 26.4°F-3.1°C 23.1°F-4.9°C 87% 3.5 mph NE5.6 kmh NE 3.5 mph5.6 kmh 29.24 in990.2 mb - 0.02 in0.5 mm 0.10 in2.5 mm
05:00 AM 26.4°F-3.1°C 23.1°F-4.9°C 87% 3.5 mph NE5.6 kmh NE 3.5 mph5.6 kmh 29.24 in990.2 mb - 0.02 in0.5 mm 0.10 in2.5 mm
05:10 AM 26.4°F-3.1°C 23.1°F-4.9°C 87% 3.5 mph NNE5.6 kmh NNE 4.6 mph7.4 kmh 29.24 in990.2 mb - 0.01 in0.3 mm 0.10 in2.5 mm
05:15 AM 26.4°F-3.1°C 23.1°F-4.9°C 87% 4.6 mph NE7.4 kmh NE 5.8 mph9.3 kmh 29.23 in989.8 mb - 0.01 in0.3 mm 0.10 in2.5 mm
05:20 AM 26.4°F-3.1°C 23.1°F-4.9°C 87% 3.5 mph NNE5.6 kmh NNE 3.5 mph5.6 kmh 29.23 in989.8 mb - 0.01 in0.3 mm 0.10 in2.5 mm
05:25 AM 26.4°F-3.1°C 23.1°F-4.9°C 87% 3.5 mph N5.6 kmh N 3.5 mph5.6 kmh 29.23 in989.8 mb - 0.01 in0.3 mm 0.10 in2.5 mm
05:30 AM 26.6°F-3.0°C 23.3°F-4.8°C 87% 3.5 mph ENE5.6 kmh ENE 3.5 mph5.6 kmh 29.24 in990.2 mb - 0.01 in0.3 mm 0.10 in2.5 mm
05:35 AM 26.6°F-3.0°C 23.3°F-4.8°C 87% 3.5 mph NNE5.6 kmh NNE 3.5 mph5.6 kmh 29.24 in990.2 mb - 0.01 in0.3 mm 0.10 in2.5 mm
05:40 AM 26.6°F-3.0°C 23.3°F-4.8°C 87% 3.5 mph ENE5.6 kmh ENE 3.5 mph5.6 kmh 29.24 in990.2 mb - 0.00 in0.0 mm 0.10 in2.5 mm
05:45 AM 26.6°F-3.0°C 23.3°F-4.8°C 87% 2.3 mph NE3.7 kmh NE 2.3 mph3.7 kmh 29.23 in989.8 mb - 0.00 in0.0 mm 0.10 in2.5 mm
05:50 AM 26.6°F-3.0°C 23.3°F-4.8°C 87% 3.5 mph NNE5.6 kmh NNE 3.5 mph5.6 kmh 29.23 in989.8 mb - 0.00 in0.0 mm 0.10 in2.5 mm
05:55 AM 26.8°F-2.9°C 23.4°F-4.8°C 87% 3.5 mph E5.6 kmh E 3.5 mph5.6 kmh 29.23 in989.8 mb - 0.00 in0.0 mm 0.10 in2.5 mm
06:00 AM 26.8°F-2.9°C 23.4°F-4.8°C 87% 3.5 mph ENE5.6 kmh ENE 4.6 mph7.4 kmh 29.24 in990.2 mb - 0.00 in0.0 mm 0.10 in2.5 mm
06:10 AM 26.8°F-2.9°C 23.4°F-4.8°C 87% 3.5 mph ENE5.6 kmh ENE 4.6 mph7.4 kmh 29.24 in990.2 mb - 0.00 in0.0 mm 0.10 in2.5 mm
06:15 AM 26.8°F-2.9°C 23.4°F-4.8°C 87% 3.5 mph E5.6 kmh E 3.5 mph5.6 kmh 29.24 in990.2 mb - 0.00 in0.0 mm 0.10 in2.5 mm
06:20 AM 26.8°F-2.9°C 23.4°F-4.8°C 87% 1.2 mph NE1.9 kmh NE 2.3 mph3.7 kmh 29.24 in990.2 mb - 0.00 in0.0 mm 0.10 in2.5 mm
06:25 AM 26.8°F-2.9°C 23.4°F-4.8°C 87% 3.5 mph NE5.6 kmh NE 3.5 mph5.6 kmh 29.24 in990.2 mb - 0.00 in0.0 mm 0.10 in2.5 mm
06:30 AM 27.0°F-2.8°C 23.6°F-4.7°C 87% 3.5 mph NE5.6 kmh NE 3.5 mph5.6 kmh 29.24 in990.2 mb - 0.00 in0.0 mm 0.10 in2.5 mm
06:35 AM 27.0°F-2.8°C 23.6°F-4.7°C 87% 2.3 mph ENE3.7 kmh ENE 2.3 mph3.7 kmh 29.24 in990.2 mb - 0.00 in0.0 mm 0.10 in2.5 mm
06:40 AM 27.0°F-2.8°C 23.6°F-4.7°C 87% 3.5 mph NE5.6 kmh NE 3.5 mph5.6 kmh 29.24 in990.2 mb - 0.00 in0.0 mm 0.10 in2.5 mm
06:45 AM 27.0°F-2.8°C 23.6°F-4.7°C 87% 3.5 mph NE5.6 kmh NE 3.5 mph5.6 kmh 29.24 in990.2 mb - 0.00 in0.0 mm 0.10 in2.5 mm
06:50 AM 27.0°F-2.8°C 23.6°F-4.7°C 87% 3.5 mph NE5.6 kmh NE 4.6 mph7.4 kmh 29.24 in990.2 mb - 0.00 in0.0 mm 0.10 in2.5 mm
06:55 AM 27.0°F-2.8°C 23.6°F-4.7°C 87% 3.5 mph ENE5.6 kmh ENE 3.5 mph5.6 kmh 29.24 in990.2 mb - 0.00 in0.0 mm 0.10 in2.5 mm
07:00 AM 27.0°F-2.8°C 23.6°F-4.7°C 87% 2.3 mph NE3.7 kmh NE 3.5 mph5.6 kmh 29.25 in990.5 mb - 0.00 in0.0 mm 0.10 in2.5 mm
07:10 AM 27.0°F-2.8°C 23.6°F-4.7°C 87% 2.3 mph ENE3.7 kmh ENE 3.5 mph5.6 kmh 29.25 in990.5 mb - 0.00 in0.0 mm 0.10 in2.5 mm
07:15 AM 27.0°F-2.8°C 23.6°F-4.7°C 87% 2.3 mph NE3.7 kmh NE 3.5 mph5.6 kmh 29.25 in990.5 mb - 0.00 in0.0 mm 0.10 in2.5 mm
07:20 AM 27.0°F-2.8°C 23.6°F-4.7°C 87% 2.3 mph NE3.7 kmh NE 3.5 mph5.6 kmh 29.25 in990.5 mb - 0.00 in0.0 mm 0.10 in2.5 mm
07:25 AM 27.0°F-2.8°C 23.6°F-4.7°C 87% 3.5 mph ENE5.6 kmh ENE 3.5 mph5.6 kmh 29.25 in990.5 mb - 0.00 in0.0 mm 0.10 in2.5 mm
07:30 AM 27.1°F-2.7°C 24.1°F-4.4°C 88% 2.3 mph NNE3.7 kmh NNE 3.5 mph5.6 kmh 29.24 in990.2 mb - 0.00 in0.0 mm 0.10 in2.5 mm
07:35 AM 27.1°F-2.7°C 24.1°F-4.4°C 88% 2.3 mph NE3.7 kmh NE 2.3 mph3.7 kmh 29.24 in990.2 mb - 0.00 in0.0 mm 0.10 in2.5 mm
07:40 AM 27.1°F-2.7°C 24.1°F-4.4°C 88% 2.3 mph ENE3.7 kmh ENE 2.3 mph3.7 kmh 29.24 in990.2 mb - 0.00 in0.0 mm 0.10 in2.5 mm
07:45 AM 27.1°F-2.7°C 24.1°F-4.4°C 88% 3.5 mph NE5.6 kmh NE 3.5 mph5.6 kmh 29.24 in990.2 mb - 0.00 in0.0 mm 0.10 in2.5 mm
07:50 AM 27.1°F-2.7°C 24.1°F-4.4°C 88% 2.3 mph NNE3.7 kmh NNE 2.3 mph3.7 kmh 29.24 in990.2 mb - 0.00 in0.0 mm 0.10 in2.5 mm
07:55 AM 27.1°F-2.7°C 24.1°F-4.4°C 88% 1.2 mph NE1.9 kmh NE 2.3 mph3.7 kmh 29.24 in990.2 mb - 0.00 in0.0 mm 0.10 in2.5 mm
08:00 AM 27.3°F-2.6°C 24.2°F-4.3°C 88% 2.3 mph ENE3.7 kmh ENE 3.5 mph5.6 kmh 29.24 in990.2 mb - 0.00 in0.0 mm 0.10 in2.5 mm
08:10 AM 27.3°F-2.6°C 24.2°F-4.3°C 88% 2.3 mph ENE3.7 kmh ENE 3.5 mph5.6 kmh 29.24 in990.2 mb - 0.00 in0.0 mm 0.10 in2.5 mm
08:15 AM 27.3°F-2.6°C 24.2°F-4.3°C 88% 2.3 mph ENE3.7 kmh ENE 2.3 mph3.7 kmh 29.24 in990.2 mb - 0.00 in0.0 mm 0.10 in2.5 mm
08:20 AM 27.3°F-2.6°C 24.2°F-4.3°C 88% 1.2 mph ENE1.9 kmh ENE 1.2 mph1.9 kmh 29.24 in990.2 mb - 0.00 in0.0 mm 0.10 in2.5 mm
08:25 AM 27.5°F-2.5°C 24.7°F-4.1°C 89% 2.3 mph ENE3.7 kmh ENE 2.3 mph3.7 kmh 29.24 in990.2 mb - 0.00 in0.0 mm 0.10 in2.5 mm
08:30 AM 27.5°F-2.5°C 24.7°F-4.1°C 89% 2.3 mph ENE3.7 kmh ENE 2.3 mph3.7 kmh 29.25 in990.5 mb - 0.00 in0.0 mm 0.10 in2.5 mm
08:35 AM 27.7°F-2.4°C 24.9°F-3.9°C 89% 2.3 mph E3.7 kmh E 3.5 mph5.6 kmh 29.25 in990.5 mb - 0.00 in0.0 mm 0.10 in2.5 mm
08:40 AM 27.7°F-2.4°C 24.9°F-3.9°C 89% 2.3 mph ESE3.7 kmh ESE 3.5 mph5.6 kmh 29.25 in990.5 mb - 0.00 in0.0 mm 0.10 in2.5 mm
08:45 AM 27.9°F-2.3°C 25.0°F-3.9°C 89% 2.3 mph ENE3.7 kmh ENE 3.5 mph5.6 kmh 29.25 in990.5 mb - 0.00 in0.0 mm 0.10 in2.5 mm
08:50 AM 27.9°F-2.3°C 25.0°F-3.9°C 89% 2.3 mph NE3.7 kmh NE 3.5 mph5.6 kmh 29.25 in990.5 mb - 0.00 in0.0 mm 0.10 in2.5 mm
08:55 AM 27.9°F-2.3°C 25.0°F-3.9°C 89% 3.5 mph ENE5.6 kmh ENE 3.5 mph5.6 kmh 29.25 in990.5 mb - 0.00 in0.0 mm 0.10 in2.5 mm
09:00 AM 28.0°F-2.2°C 25.2°F-3.8°C 89% 2.3 mph ENE3.7 kmh ENE 2.3 mph3.7 kmh 29.24 in990.2 mb - 0.00 in0.0 mm 0.10 in2.5 mm
09:10 AM 28.3°F-2.1°C 25.5°F-3.6°C 89% 1.2 mph ENE1.9 kmh ENE 1.2 mph1.9 kmh 29.24 in990.2 mb - 0.00 in0.0 mm 0.10 in2.5 mm
09:15 AM 28.4°F-2.0°C 25.6°F-3.6°C 89% 2.3 mph ENE3.7 kmh ENE 3.5 mph5.6 kmh 29.25 in990.5 mb - 0.00 in0.0 mm 0.10 in2.5 mm
09:20 AM 28.6°F-1.9°C 25.8°F-3.4°C 89% 3.5 mph E5.6 kmh E 3.5 mph5.6 kmh 29.25 in990.5 mb - 0.00 in0.0 mm 0.10 in2.5 mm
09:25 AM 28.6°F-1.9°C 25.8°F-3.4°C 89% 1.2 mph E1.9 kmh E 2.3 mph3.7 kmh 29.25 in990.5 mb - 0.00 in0.0 mm 0.10 in2.5 mm
09:30 AM 28.8°F-1.8°C 25.9°F-3.4°C 89% 2.3 mph E3.7 kmh E 3.5 mph5.6 kmh 29.25 in990.5 mb - 0.00 in0.0 mm 0.10 in2.5 mm
09:35 AM 28.8°F-1.8°C 25.9°F-3.4°C 89% 2.3 mph E3.7 kmh E 2.3 mph3.7 kmh 29.25 in990.5 mb - 0.00 in0.0 mm 0.10 in2.5 mm
09:40 AM 28.8°F-1.8°C 25.9°F-3.4°C 89% 1.2 mph E1.9 kmh E 2.3 mph3.7 kmh 29.25 in990.5 mb - 0.00 in0.0 mm 0.10 in2.5 mm
09:45 AM 28.9°F-1.7°C 26.1°F-3.3°C 89% 1.2 mph NNE1.9 kmh NNE 2.3 mph3.7 kmh 29.24 in990.2 mb - 0.00 in0.0 mm 0.10 in2.5 mm
09:50 AM 29.1°F-1.6°C 26.3°F-3.2°C 89% 3.5 mph ENE5.6 kmh ENE 3.5 mph5.6 kmh 29.24 in990.2 mb - 0.00 in0.0 mm 0.10 in2.5 mm
09:55 AM 29.1°F-1.6°C 26.3°F-3.2°C 89% 2.3 mph ENE3.7 kmh ENE 2.3 mph3.7 kmh 29.24 in990.2 mb - 0.00 in0.0 mm 0.10 in2.5 mm
10:00 AM 29.3°F-1.5°C 26.5°F-3.1°C 89% Calm Calm 1.2 mph1.9 kmh 29.24 in990.2 mb - 0.00 in0.0 mm 0.10 in2.5 mm
10:10 AM 29.5°F-1.4°C 26.6°F-3.0°C 89% 3.5 mph E5.6 kmh E 3.5 mph5.6 kmh 29.24 in990.2 mb - 0.00 in0.0 mm 0.10 in2.5 mm
10:15 AM 29.7°F-1.3°C 26.8°F-2.9°C 89% 1.2 mph ESE1.9 kmh ESE 1.2 mph1.9 kmh 29.24 in990.2 mb - 0.00 in0.0 mm 0.10 in2.5 mm
10:20 AM 29.8°F-1.2°C 27.0°F-2.8°C 89% Calm Calm -- 29.24 in990.2 mb - 0.00 in0.0 mm 0.10 in2.5 mm
10:25 AM 29.8°F-1.2°C 27.0°F-2.8°C 89% 1.2 mph E1.9 kmh E 1.2 mph1.9 kmh 29.24 in990.2 mb - 0.00 in0.0 mm 0.10 in2.5 mm
10:30 AM 30.4°F-0.9°C 27.5°F-2.5°C 89% 2.3 mph E3.7 kmh E 2.3 mph3.7 kmh 29.24 in990.2 mb - 0.00 in0.0 mm 0.10 in2.5 mm
10:35 AM 30.4°F-0.9°C 27.3°F-2.6°C 88% 1.2 mph E1.9 kmh E 2.3 mph3.7 kmh 29.24 in990.2 mb - 0.00 in0.0 mm 0.10 in2.5 mm
10:40 AM 30.6°F-0.8°C 27.5°F-2.5°C 88% 1.2 mph E1.9 kmh E 2.3 mph3.7 kmh 29.24 in990.2 mb - 0.00 in0.0 mm 0.10 in2.5 mm
10:45 AM 30.9°F-0.6°C 27.8°F-2.3°C 88% Calm Calm 1.2 mph1.9 kmh 29.23 in989.8 mb - 0.00 in0.0 mm 0.10 in2.5 mm
10:50 AM 30.9°F-0.6°C 27.8°F-2.3°C 88% 3.5 mph S5.6 kmh S 3.5 mph5.6 kmh 29.23 in989.8 mb - 0.00 in0.0 mm 0.10 in2.5 mm
10:55 AM 30.9°F-0.6°C 27.8°F-2.3°C 88% 2.3 mph S3.7 kmh S 3.5 mph5.6 kmh 29.23 in989.8 mb - 0.00 in0.0 mm 0.10 in2.5 mm
11:00 AM 30.7°F-0.7°C 27.6°F-2.4°C 88% 2.3 mph SSW3.7 kmh SSW 2.3 mph3.7 kmh 29.24 in990.2 mb - 0.00 in0.0 mm 0.10 in2.5 mm
11:10 AM 30.7°F-0.7°C 27.6°F-2.4°C 88% 1.2 mph S1.9 kmh S 2.3 mph3.7 kmh 29.24 in990.2 mb - 0.00 in0.0 mm 0.10 in2.5 mm
11:15 AM 30.7°F-0.7°C 27.3°F-2.6°C 87% 2.3 mph SE3.7 kmh SE 3.5 mph5.6 kmh 29.23 in989.8 mb - 0.00 in0.0 mm 0.10 in2.5 mm
11:20 AM 30.7°F-0.7°C 27.3°F-2.6°C 87% 2.3 mph SE3.7 kmh SE 3.5 mph5.6 kmh 29.23 in989.8 mb - 0.00 in0.0 mm 0.10 in2.5 mm
11:25 AM 30.7°F-0.7°C 27.3°F-2.6°C 87% 1.2 mph ESE1.9 kmh ESE 2.3 mph3.7 kmh 29.23 in989.8 mb - 0.00 in0.0 mm 0.10 in2.5 mm
11:30 AM 31.0°F-0.6°C 27.6°F-2.4°C 87% Calm Calm 1.2 mph1.9 kmh 29.23 in989.8 mb - 0.00 in0.0 mm 0.10 in2.5 mm
11:35 AM 31.1°F-0.5°C 27.7°F-2.4°C 87% 1.2 mph SE1.9 kmh SE 2.3 mph3.7 kmh 29.23 in989.8 mb - 0.00 in0.0 mm 0.10 in2.5 mm
11:40 AM 31.1°F-0.5°C 27.7°F-2.4°C 87% 1.2 mph SSE1.9 kmh SSE 2.3 mph3.7 kmh 29.23 in989.8 mb - 0.00 in0.0 mm 0.10 in2.5 mm
11:45 AM 31.3°F-0.4°C 27.9°F-2.3°C 87% 1.2 mph SSE1.9 kmh SSE 1.2 mph1.9 kmh 29.22 in989.5 mb - 0.00 in0.0 mm 0.10 in2.5 mm
11:50 AM 31.5°F-0.3°C 28.0°F-2.2°C 87% 1.2 mph S1.9 kmh S 2.3 mph3.7 kmh 29.22 in989.5 mb - 0.00 in0.0 mm 0.10 in2.5 mm
11:55 AM 31.6°F-0.2°C 28.2°F-2.1°C 87% 1.2 mph SSW1.9 kmh SSW 3.5 mph5.6 kmh 29.22 in989.5 mb - 0.00 in0.0 mm 0.10 in2.5 mm
12:00 PM 31.6°F-0.2°C 27.9°F-2.3°C 86% 2.3 mph SW3.7 kmh SW 3.5 mph5.6 kmh 29.22 in989.5 mb - 0.00 in0.0 mm 0.10 in2.5 mm
12:10 PM 32.0°F0.0°C 28.3°F-2.1°C 86% 1.2 mph SSW1.9 kmh SSW 3.5 mph5.6 kmh 29.22 in989.5 mb - 0.00 in0.0 mm 0.10 in2.5 mm
12:15 PM 32.0°F0.0°C 28.3°F-2.1°C 86% 2.3 mph ESE3.7 kmh ESE 2.3 mph3.7 kmh 29.21 in989.2 mb - 0.00 in0.0 mm 0.10 in2.5 mm
12:20 PM 32.4°F0.2°C 28.6°F-1.9°C 86% 1.2 mph ESE1.9 kmh ESE 2.3 mph3.7 kmh 29.21 in989.2 mb - 0.00 in0.0 mm 0.10 in2.5 mm
12:25 PM 32.2°F0.1°C 27.9°F-2.3°C 84% 2.3 mph ESE3.7 kmh ESE 3.5 mph5.6 kmh 29.21 in989.2 mb - 0.00 in0.0 mm 0.10 in2.5 mm
12:30 PM 32.0°F0.0°C 27.7°F-2.4°C 84% 2.3 mph SE3.7 kmh SE 3.5 mph5.6 kmh 29.21 in989.2 mb - 0.00 in0.0 mm 0.10 in2.5 mm
12:35 PM 32.0°F0.0°C 27.7°F-2.4°C 84% 3.5 mph E5.6 kmh E 3.5 mph5.6 kmh 29.21 in989.2 mb - 0.00 in0.0 mm 0.10 in2.5 mm
12:40 PM 32.0°F0.0°C 27.7°F-2.4°C 84% 3.5 mph ESE5.6 kmh ESE 3.5 mph5.6 kmh 29.21 in989.2 mb - 0.00 in0.0 mm 0.10 in2.5 mm
12:45 PM 32.9°F0.5°C 28.6°F-1.9°C 84% 2.3 mph E3.7 kmh E 3.5 mph5.6 kmh 29.20 in988.8 mb - 0.00 in0.0 mm 0.10 in2.5 mm
12:50 PM 32.4°F0.2°C 28.1°F-2.2°C 84% 3.5 mph SE5.6 kmh SE 5.8 mph9.3 kmh 29.20 in988.8 mb - 0.00 in0.0 mm 0.10 in2.5 mm
12:55 PM 32.4°F0.2°C 28.1°F-2.2°C 84% 3.5 mph ESE5.6 kmh ESE 3.5 mph5.6 kmh 29.20 in988.8 mb - 0.00 in0.0 mm 0.10 in2.5 mm
01:00 PM 32.4°F0.2°C 28.1°F-2.2°C 84% 3.5 mph E5.6 kmh E 3.5 mph5.6 kmh 29.21 in989.2 mb - 0.00 in0.0 mm 0.10 in2.5 mm
01:10 PM 32.2°F0.1°C 27.9°F-2.3°C 84% 2.3 mph ESE3.7 kmh ESE 2.3 mph3.7 kmh 29.21 in989.2 mb - 0.00 in0.0 mm 0.10 in2.5 mm
01:15 PM 32.2°F0.1°C 27.9°F-2.3°C 84% 4.6 mph E7.4 kmh E 5.8 mph9.3 kmh 29.21 in989.2 mb - 0.00 in0.0 mm 0.10 in2.5 mm
01:20 PM 32.0°F0.0°C 27.7°F-2.4°C 84% 3.5 mph ESE5.6 kmh ESE 3.5 mph5.6 kmh 29.21 in989.2 mb - 0.00 in0.0 mm 0.10 in2.5 mm
01:25 PM 32.0°F0.0°C 27.7°F-2.4°C 84% 3.5 mph E5.6 kmh E 3.5 mph5.6 kmh 29.21 in989.2 mb - 0.00 in0.0 mm 0.10 in2.5 mm
01:30 PM 32.0°F0.0°C 27.7°F-2.4°C 84% 3.5 mph S5.6 kmh S 3.5 mph5.6 kmh 29.20 in988.8 mb - 0.00 in0.0 mm 0.10 in2.5 mm
01:35 PM 32.0°F0.0°C 27.7°F-2.4°C 84% 1.2 mph ESE1.9 kmh ESE 2.3 mph3.7 kmh 29.20 in988.8 mb - 0.00 in0.0 mm 0.10 in2.5 mm
01:40 PM 32.0°F0.0°C 27.7°F-2.4°C 84% 3.5 mph S5.6 kmh S 3.5 mph5.6 kmh 29.20 in988.8 mb - 0.00 in0.0 mm 0.10 in2.5 mm
01:45 PM 32.0°F0.0°C 27.4°F-2.6°C 83% 3.5 mph SW5.6 kmh SW 3.5 mph5.6 kmh 29.20 in988.8 mb - 0.00 in0.0 mm 0.10 in2.5 mm
01:50 PM 31.8°F-0.1°C 27.2°F-2.7°C 83% 3.5 mph SW5.6 kmh SW 2.3 mph3.7 kmh 29.20 in988.8 mb - 0.00 in0.0 mm 0.10 in2.5 mm
01:55 PM 32.0°F0.0°C 27.4°F-2.6°C 83% 2.3 mph SSW3.7 kmh SSW 2.3 mph3.7 kmh 29.20 in988.8 mb - 0.00 in0.0 mm 0.10 in2.5 mm
02:00 PM 32.0°F0.0°C 27.4°F-2.6°C 83% 2.3 mph WSW3.7 kmh WSW 1.2 mph1.9 kmh 29.21 in989.2 mb - 0.00 in0.0 mm 0.10 in2.5 mm
02:10 PM 32.0°F0.0°C 27.4°F-2.6°C 83% 3.5 mph SSW5.6 kmh SSW 3.5 mph5.6 kmh 29.21 in989.2 mb - 0.00 in0.0 mm 0.10 in2.5 mm
02:15 PM 31.8°F-0.1°C 27.2°F-2.7°C 83% 3.5 mph S5.6 kmh S 3.5 mph5.6 kmh 29.21 in989.2 mb - 0.00 in0.0 mm 0.10 in2.5 mm
02:20 PM 32.0°F0.0°C 27.4°F-2.6°C 83% 2.3 mph WNW3.7 kmh WNW 2.3 mph3.7 kmh 29.21 in989.2 mb - 0.00 in0.0 mm 0.10 in2.5 mm
02:25 PM 32.0°F0.0°C 27.4°F-2.6°C 83% 2.3 mph SW3.7 kmh SW 2.3 mph3.7 kmh 29.21 in989.2 mb - 0.00 in0.0 mm 0.10 in2.5 mm
02:30 PM 32.0°F0.0°C 27.4°F-2.6°C 83% 2.3 mph SSW3.7 kmh SSW 3.5 mph5.6 kmh 29.20 in988.8 mb - 0.00 in0.0 mm 0.10 in2.5 mm
02:35 PM 32.0°F0.0°C 27.4°F-2.6°C 83% 2.3 mph SSW3.7 kmh SSW 3.5 mph5.6 kmh 29.20 in988.8 mb - 0.00 in0.0 mm 0.10 in2.5 mm
02:40 PM 32.0°F0.0°C 27.4°F-2.6°C 83% 1.2 mph E1.9 kmh E 2.3 mph3.7 kmh 29.20 in988.8 mb - 0.00 in0.0 mm 0.10 in2.5 mm
02:45 PM 32.0°F0.0°C 27.4°F-2.6°C 83% Calm Calm -- 29.19 in988.5 mb - 0.00 in0.0 mm 0.10 in2.5 mm
02:50 PM 32.0°F0.0°C 27.4°F-2.6°C 83% Calm Calm 2.3 mph3.7 kmh 29.19 in988.5 mb - 0.00 in0.0 mm 0.10 in2.5 mm
02:55 PM 32.0°F0.0°C 27.4°F-2.6°C 83% Calm Calm -- 29.19 in988.5 mb - 0.00 in0.0 mm 0.10 in2.5 mm
03:00 PM 32.0°F0.0°C 27.4°F-2.6°C 83% Calm Calm -- 29.19 in988.5 mb - 0.00 in0.0 mm 0.10 in2.5 mm
03:10 PM 31.8°F-0.1°C 27.2°F-2.7°C 83% 1.2 mph ESE1.9 kmh ESE 2.3 mph3.7 kmh 29.19 in988.5 mb - 0.00 in0.0 mm 0.10 in2.5 mm
03:15 PM 31.8°F-0.1°C 27.2°F-2.7°C 83% 1.2 mph ESE1.9 kmh ESE 2.3 mph3.7 kmh 29.20 in988.8 mb - 0.00 in0.0 mm 0.10 in2.5 mm
03:20 PM 31.8°F-0.1°C 27.2°F-2.7°C 83% 1.2 mph ESE1.9 kmh ESE 2.3 mph3.7 kmh 29.20 in988.8 mb - 0.00 in0.0 mm 0.10 in2.5 mm
03:25 PM 31.8°F-0.1°C 27.2°F-2.7°C 83% 1.2 mph ESE1.9 kmh ESE 1.2 mph1.9 kmh 29.20 in988.8 mb - 0.00 in0.0 mm 0.10 in2.5 mm
03:30 PM 31.6°F-0.2°C 27.1°F-2.7°C 83% 2.3 mph E3.7 kmh E 3.5 mph5.6 kmh 29.20 in988.8 mb - 0.00 in0.0 mm 0.10 in2.5 mm
03:35 PM 31.6°F-0.2°C 27.1°F-2.7°C 83% 3.5 mph ESE5.6 kmh ESE 3.5 mph5.6 kmh 29.20 in988.8 mb - 0.00 in0.0 mm 0.10 in2.5 mm
03:40 PM 31.5°F-0.3°C 26.9°F-2.8°C 83% 3.5 mph ESE5.6 kmh ESE 4.6 mph7.4 kmh 29.20 in988.8 mb - 0.00 in0.0 mm 0.10 in2.5 mm
03:45 PM 31.3°F-0.4°C 26.7°F-2.9°C 83% 3.5 mph E5.6 kmh E 3.5 mph5.6 kmh 29.20 in988.8 mb - 0.00 in0.0 mm 0.10 in2.5 mm
03:50 PM 31.3°F-0.4°C 26.7°F-2.9°C 83% 1.2 mph ESE1.9 kmh ESE 3.5 mph5.6 kmh 29.20 in988.8 mb - 0.00 in0.0 mm 0.10 in2.5 mm
03:55 PM 31.1°F-0.5°C 26.5°F-3.1°C 83% 1.2 mph S1.9 kmh S 1.2 mph1.9 kmh 29.20 in988.8 mb - 0.00 in0.0 mm 0.10 in2.5 mm
04:00 PM 31.2°F-0.4°C 26.6°F-3.0°C 83% Calm Calm -- 29.21 in989.2 mb - 0.00 in0.0 mm 0.10 in2.5 mm
04:10 PM 31.1°F-0.5°C 26.5°F-3.1°C 83% 2.3 mph SE3.7 kmh SE 2.3 mph3.7 kmh 29.21 in989.2 mb - 0.00 in0.0 mm 0.10 in2.5 mm
04:15 PM 31.1°F-0.5°C 26.5°F-3.1°C 83% 2.3 mph ESE3.7 kmh ESE 2.3 mph3.7 kmh 29.21 in989.2 mb - 0.00 in0.0 mm 0.10 in2.5 mm
04:20 PM 30.9°F-0.6°C 26.4°F-3.1°C 83% 3.5 mph NE5.6 kmh NE 5.8 mph9.3 kmh 29.21 in989.2 mb - 0.00 in0.0 mm 0.10 in2.5 mm
04:25 PM 30.8°F-0.7°C 26.5°F-3.1°C 84% 3.5 mph NE5.6 kmh NE 3.5 mph5.6 kmh 29.21 in989.2 mb - 0.00 in0.0 mm 0.10 in2.5 mm
04:30 PM 30.9°F-0.6°C 26.7°F-2.9°C 84% 2.3 mph N3.7 kmh N 2.3 mph3.7 kmh 29.20 in988.8 mb - 0.00 in0.0 mm 0.10 in2.5 mm
04:35 PM 30.9°F-0.6°C 26.7°F-2.9°C 84% 2.3 mph NE3.7 kmh NE 1.2 mph1.9 kmh 29.20 in988.8 mb - 0.00 in0.0 mm 0.10 in2.5 mm
04:40 PM 30.9°F-0.6°C 26.7°F-2.9°C 84% 2.3 mph NE3.7 kmh NE 2.3 mph3.7 kmh 29.20 in988.8 mb - 0.00 in0.0 mm 0.10 in2.5 mm
04:45 PM 30.7°F-0.7°C 26.5°F-3.1°C 84% 2.3 mph NE3.7 kmh NE 2.3 mph3.7 kmh 29.21 in989.2 mb - 0.00 in0.0 mm 0.10 in2.5 mm
04:50 PM 30.7°F-0.7°C 26.5°F-3.1°C 84% 1.2 mph NE1.9 kmh NE 2.3 mph3.7 kmh 29.21 in989.2 mb - 0.00 in0.0 mm 0.10 in2.5 mm
04:55 PM 30.7°F-0.7°C 26.5°F-3.1°C 84% Calm Calm -- 29.21 in989.2 mb - 0.00 in0.0 mm 0.10 in2.5 mm
05:00 PM 30.9°F-0.6°C 26.6°F-3.0°C 84% 2.3 mph NE3.7 kmh NE 3.5 mph5.6 kmh 29.20 in988.8 mb - 0.00 in0.0 mm 0.10 in2.5 mm
05:10 PM 30.7°F-0.7°C 26.5°F-3.1°C 84% 3.5 mph NE5.6 kmh NE 3.5 mph5.6 kmh 29.20 in988.8 mb - 0.00 in0.0 mm 0.10 in2.5 mm
05:15 PM 30.7°F-0.7°C 26.5°F-3.1°C 84% 2.3 mph NE3.7 kmh NE 2.3 mph3.7 kmh 29.21 in989.2 mb - 0.00 in0.0 mm 0.10 in2.5 mm
05:20 PM 30.9°F-0.6°C 26.7°F-2.9°C 84% 2.3 mph NNE3.7 kmh NNE 3.5 mph5.6 kmh 29.21 in989.2 mb - 0.00 in0.0 mm 0.10 in2.5 mm
05:25 PM 30.9°F-0.6°C 27.2°F-2.7°C 86% 1.2 mph NNE1.9 kmh NNE 1.2 mph1.9 kmh 29.21 in989.2 mb - 0.00 in0.0 mm 0.10 in2.5 mm
05:30 PM 30.9°F-0.6°C 27.2°F-2.7°C 86% 3.5 mph NE5.6 kmh NE 3.5 mph5.6 kmh 29.21 in989.2 mb - 0.00 in0.0 mm 0.10 in2.5 mm
05:35 PM 30.9°F-0.6°C 27.2°F-2.7°C 86% 2.3 mph NE3.7 kmh NE 2.3 mph3.7 kmh 29.21 in989.2 mb - 0.00 in0.0 mm 0.10 in2.5 mm
05:40 PM 30.9°F-0.6°C 27.2°F-2.7°C 86% 3.5 mph NE5.6 kmh NE 3.5 mph5.6 kmh 29.21 in989.2 mb - 0.00 in0.0 mm 0.10 in2.5 mm
05:45 PM 30.9°F-0.6°C 27.2°F-2.7°C 86% 2.3 mph ENE3.7 kmh ENE 2.3 mph3.7 kmh 29.21 in989.2 mb - 0.00 in0.0 mm 0.10 in2.5 mm
05:50 PM 30.9°F-0.6°C 27.2°F-2.7°C 86% 2.3 mph ENE3.7 kmh ENE 3.5 mph5.6 kmh 29.21 in989.2 mb - 0.00 in0.0 mm 0.10 in2.5 mm
05:55 PM 30.9°F-0.6°C 27.2°F-2.7°C 86% 3.5 mph ENE5.6 kmh ENE 3.5 mph5.6 kmh 29.21 in989.2 mb - 0.00 in0.0 mm 0.10 in2.5 mm
06:00 PM 30.7°F-0.7°C 27.0°F-2.8°C 86% 3.5 mph NE5.6 kmh NE 3.5 mph5.6 kmh 29.21 in989.2 mb - 0.00 in0.0 mm 0.10 in2.5 mm
06:10 PM 30.7°F-0.7°C 27.0°F-2.8°C 86% 3.5 mph NE5.6 kmh NE 3.5 mph5.6 kmh 29.21 in989.2 mb - 0.00 in0.0 mm 0.10 in2.5 mm
06:15 PM 30.7°F-0.7°C 27.0°F-2.8°C 86% 2.3 mph NNE3.7 kmh NNE 3.5 mph5.6 kmh 29.21 in989.2 mb - 0.00 in0.0 mm 0.10 in2.5 mm
06:20 PM 30.6°F-0.8°C 26.9°F-2.8°C 86% 3.5 mph ENE5.6 kmh ENE 3.5 mph5.6 kmh 29.21 in989.2 mb - 0.00 in0.0 mm 0.10 in2.5 mm
06:25 PM 30.6°F-0.8°C 26.9°F-2.8°C 86% 2.3 mph NE3.7 kmh NE 3.5 mph5.6 kmh 29.21 in989.2 mb - 0.00 in0.0 mm 0.10 in2.5 mm
06:30 PM 30.6°F-0.8°C 26.9°F-2.8°C 86% 2.3 mph ENE3.7 kmh ENE 3.5 mph5.6 kmh 29.21 in989.2 mb - 0.00 in0.0 mm 0.10 in2.5 mm
06:35 PM 30.6°F-0.8°C 26.9°F-2.8°C 86% 3.5 mph ENE5.6 kmh ENE 3.5 mph5.6 kmh 29.21 in989.2 mb - 0.00 in0.0 mm 0.10 in2.5 mm
06:40 PM 30.6°F-0.8°C 26.9°F-2.8°C 86% 3.5 mph ENE5.6 kmh ENE 4.6 mph7.4 kmh 29.21 in989.2 mb - 0.00 in0.0 mm 0.10 in2.5 mm
06:45 PM 30.6°F-0.8°C 26.9°F-2.8°C 86% 3.5 mph ENE5.6 kmh ENE 4.6 mph7.4 kmh 29.21 in989.2 mb - 0.00 in0.0 mm 0.10 in2.5 mm
06:50 PM 30.6°F-0.8°C 26.9°F-2.8°C 86% 3.5 mph E5.6 kmh E 5.8 mph9.3 kmh 29.21 in989.2 mb - 0.00 in0.0 mm 0.10 in2.5 mm
06:55 PM 30.6°F-0.8°C 26.9°F-2.8°C 86% 2.3 mph ESE3.7 kmh ESE 3.5 mph5.6 kmh 29.21 in989.2 mb - 0.00 in0.0 mm 0.10 in2.5 mm
07:00 PM 30.6°F-0.8°C 26.9°F-2.8°C 86% 3.5 mph ENE5.6 kmh ENE 3.5 mph5.6 kmh 29.21 in989.2 mb - 0.00 in0.0 mm 0.10 in2.5 mm
07:10 PM 30.7°F-0.7°C 27.0°F-2.8°C 86% 3.5 mph ENE5.6 kmh ENE 4.6 mph7.4 kmh 29.21 in989.2 mb - 0.00 in0.0 mm 0.10 in2.5 mm
07:15 PM 30.7°F-0.7°C 27.0°F-2.8°C 86% 2.3 mph NE3.7 kmh NE 3.5 mph5.6 kmh 29.21 in989.2 mb - 0.00 in0.0 mm 0.10 in2.5 mm
07:20 PM 30.7°F-0.7°C 27.0°F-2.8°C 86% 2.3 mph NNE3.7 kmh NNE 3.5 mph5.6 kmh 29.21 in989.2 mb - 0.00 in0.0 mm 0.10 in2.5 mm
07:25 PM 30.7°F-0.7°C 27.3°F-2.6°C 87% 2.3 mph ENE3.7 kmh ENE 3.5 mph5.6 kmh 29.21 in989.2 mb - 0.00 in0.0 mm 0.10 in2.5 mm
07:30 PM 30.7°F-0.7°C 27.3°F-2.6°C 87% 3.5 mph NE5.6 kmh NE 3.5 mph5.6 kmh 29.21 in989.2 mb - 0.00 in0.0 mm 0.10 in2.5 mm
07:35 PM 30.7°F-0.7°C 27.3°F-2.6°C 87% 3.5 mph ENE5.6 kmh ENE 2.3 mph3.7 kmh 29.21 in989.2 mb - 0.00 in0.0 mm 0.10 in2.5 mm
07:40 PM 30.7°F-0.7°C 27.3°F-2.6°C 87% 2.3 mph ENE3.7 kmh ENE 2.3 mph3.7 kmh 29.21 in989.2 mb - 0.00 in0.0 mm 0.10 in2.5 mm
07:45 PM 30.9°F-0.6°C 27.5°F-2.5°C 87% 2.3 mph NE3.7 kmh NE 3.5 mph5.6 kmh 29.21 in989.2 mb - 0.00 in0.0 mm 0.10 in2.5 mm
07:50 PM 30.9°F-0.6°C 27.5°F-2.5°C 87% 2.3 mph ENE3.7 kmh ENE 3.5 mph5.6 kmh 29.21 in989.2 mb - 0.00 in0.0 mm 0.10 in2.5 mm
07:55 PM 30.9°F-0.6°C 27.5°F-2.5°C 87% 2.3 mph NE3.7 kmh NE 3.5 mph5.6 kmh 29.21 in989.2 mb - 0.00 in0.0 mm 0.10 in2.5 mm
08:00 PM 30.9°F-0.6°C 27.5°F-2.5°C 87% 2.3 mph NE3.7 kmh NE 2.3 mph3.7 kmh 29.20 in988.8 mb - 0.00 in0.0 mm 0.10 in2.5 mm
08:10 PM 30.9°F-0.6°C 27.8°F-2.3°C 88% 3.5 mph NE5.6 kmh NE 2.3 mph3.7 kmh 29.20 in988.8 mb - 0.00 in0.0 mm 0.10 in2.5 mm
08:15 PM 30.9°F-0.6°C 27.8°F-2.3°C 88% 3.5 mph NNE5.6 kmh NNE 5.8 mph9.3 kmh 29.21 in989.2 mb - 0.00 in0.0 mm 0.10 in2.5 mm
08:20 PM 30.9°F-0.6°C 27.8°F-2.3°C 88% 3.5 mph NNE5.6 kmh NNE 3.5 mph5.6 kmh 29.21 in989.2 mb - 0.00 in0.0 mm 0.10 in2.5 mm
08:25 PM 30.9°F-0.6°C 27.8°F-2.3°C 88% 3.5 mph N5.6 kmh N 4.6 mph7.4 kmh 29.21 in989.2 mb - 0.00 in0.0 mm 0.10 in2.5 mm
08:30 PM 30.9°F-0.6°C 27.8°F-2.3°C 88% 5.8 mph ENE9.3 kmh ENE 6.9 mph11.1 kmh 29.21 in989.2 mb - 0.00 in0.0 mm 0.10 in2.5 mm
08:35 PM 30.9°F-0.6°C 27.8°F-2.3°C 88% 3.5 mph ENE5.6 kmh ENE 6.9 mph11.1 kmh 29.21 in989.2 mb - 0.00 in0.0 mm 0.10 in2.5 mm
08:40 PM 30.9°F-0.6°C 28.1°F-2.2°C 89% 6.9 mph NE11.1 kmh NE 5.8 mph9.3 kmh 29.21 in989.2 mb - 0.00 in0.0 mm 0.10 in2.5 mm
08:45 PM 30.9°F-0.6°C 28.1°F-2.2°C 89% 5.8 mph NNE9.3 kmh NNE 5.8 mph9.3 kmh 29.21 in989.2 mb - 0.00 in0.0 mm 0.10 in2.5 mm
08:50 PM 30.9°F-0.6°C 27.8°F-2.3°C 88% 4.6 mph NNE7.4 kmh NNE 5.8 mph9.3 kmh 29.21 in989.2 mb - 0.00 in0.0 mm 0.10 in2.5 mm
08:55 PM 30.9°F-0.6°C 27.8°F-2.3°C 88% 4.6 mph ENE7.4 kmh ENE 6.9 mph11.1 kmh 29.21 in989.2 mb - 0.00 in0.0 mm 0.10 in2.5 mm
09:00 PM 30.7°F-0.7°C 27.6°F-2.4°C 88% 3.5 mph NE5.6 kmh NE 5.8 mph9.3 kmh 29.21 in989.2 mb - 0.00 in0.0 mm 0.10 in2.5 mm
09:10 PM 30.7°F-0.7°C 27.6°F-2.4°C 88% 3.5 mph NE5.6 kmh NE 3.5 mph5.6 kmh 29.21 in989.2 mb - 0.00 in0.0 mm 0.10 in2.5 mm
09:15 PM 30.7°F-0.7°C 27.9°F-2.3°C 89% 2.3 mph ENE3.7 kmh ENE 3.5 mph5.6 kmh 29.21 in989.2 mb - 0.00 in0.0 mm 0.10 in2.5 mm
09:20 PM 30.7°F-0.7°C 27.9°F-2.3°C 89% 2.3 mph NE3.7 kmh NE 3.5 mph5.6 kmh 29.21 in989.2 mb - 0.00 in0.0 mm 0.10 in2.5 mm
09:25 PM 30.7°F-0.7°C 27.9°F-2.3°C 89% 3.5 mph NE5.6 kmh NE 5.8 mph9.3 kmh 29.21 in989.2 mb - 0.00 in0.0 mm 0.10 in2.5 mm
09:30 PM 30.7°F-0.7°C 27.9°F-2.3°C 89% 3.5 mph ENE5.6 kmh ENE 3.5 mph5.6 kmh 29.22 in989.5 mb - 0.00 in0.0 mm 0.10 in2.5 mm
09:35 PM 30.7°F-0.7°C 27.9°F-2.3°C 89% 3.5 mph NE5.6 kmh NE 4.6 mph7.4 kmh 29.22 in989.5 mb - 0.00 in0.0 mm 0.10 in2.5 mm
09:40 PM 30.7°F-0.7°C 27.9°F-2.3°C 89% 3.5 mph E5.6 kmh E 3.5 mph5.6 kmh 29.22 in989.5 mb - 0.00 in0.0 mm 0.10 in2.5 mm
09:45 PM 30.7°F-0.7°C 27.9°F-2.3°C 89% 4.6 mph NNE7.4 kmh NNE 4.6 mph7.4 kmh 29.21 in989.2 mb - 0.00 in0.0 mm 0.10 in2.5 mm
09:50 PM 30.7°F-0.7°C 28.2°F-2.1°C 90% 4.6 mph NNE7.4 kmh NNE 3.5 mph5.6 kmh 29.21 in989.2 mb - 0.00 in0.0 mm 0.10 in2.5 mm
09:55 PM 30.7°F-0.7°C 28.2°F-2.1°C 90% 4.6 mph N7.4 kmh N 6.9 mph11.1 kmh 29.21 in989.2 mb - 0.00 in0.0 mm 0.10 in2.5 mm
10:00 PM 30.7°F-0.7°C 28.4°F-2.0°C 91% 3.5 mph NNE5.6 kmh NNE 4.6 mph7.4 kmh 29.20 in988.8 mb - 0.00 in0.0 mm 0.10 in2.5 mm
10:10 PM 30.7°F-0.7°C 28.7°F-1.8°C 92% 4.6 mph NE7.4 kmh NE 6.9 mph11.1 kmh 29.20 in988.8 mb - 0.00 in0.0 mm 0.10 in2.5 mm
10:15 PM 30.7°F-0.7°C 29.2°F-1.6°C 94% 5.8 mph NNE9.3 kmh NNE 8.1 mph13.0 kmh 29.19 in988.5 mb - 0.00 in0.0 mm 0.10 in2.5 mm
10:20 PM 30.6°F-0.8°C 29.0°F-1.7°C 94% 4.6 mph NE7.4 kmh NE 5.8 mph9.3 kmh 29.19 in988.5 mb - 0.00 in0.0 mm 0.10 in2.5 mm
10:25 PM 30.6°F-0.8°C 29.0°F-1.7°C 94% 3.5 mph NNE5.6 kmh NNE 5.8 mph9.3 kmh 29.19 in988.5 mb - 0.00 in0.0 mm 0.10 in2.5 mm
10:30 PM 30.6°F-0.8°C 29.0°F-1.7°C 94% 5.8 mph NE9.3 kmh NE 5.8 mph9.3 kmh 29.20 in988.8 mb - 0.00 in0.0 mm 0.10 in2.5 mm
10:35 PM 30.6°F-0.8°C 29.0°F-1.7°C 94% 4.6 mph NNE7.4 kmh NNE 6.9 mph11.1 kmh 29.20 in988.8 mb - 0.00 in0.0 mm 0.10 in2.5 mm
10:40 PM 30.6°F-0.8°C 29.0°F-1.7°C 94% 3.5 mph NNE5.6 kmh NNE 5.8 mph9.3 kmh 29.20 in988.8 mb - 0.00 in0.0 mm 0.10 in2.5 mm
10:45 PM 30.6°F-0.8°C 29.0°F-1.7°C 94% 3.5 mph NE5.6 kmh NE 3.5 mph5.6 kmh 29.20 in988.8 mb - 0.00 in0.0 mm 0.10 in2.5 mm
10:50 PM 30.6°F-0.8°C 29.0°F-1.7°C 94% 4.6 mph NE7.4 kmh NE 5.8 mph9.3 kmh 29.20 in988.8 mb - 0.00 in0.0 mm 0.10 in2.5 mm
10:55 PM 30.6°F-0.8°C 29.0°F-1.7°C 94% 4.6 mph NE7.4 kmh NE 8.1 mph13.0 kmh 29.20 in988.8 mb - 0.00 in0.0 mm 0.10 in2.5 mm
11:00 PM 30.4°F-0.9°C 28.9°F-1.7°C 94% 5.8 mph NNE9.3 kmh NNE 5.8 mph9.3 kmh 29.19 in988.5 mb - 0.00 in0.0 mm 0.10 in2.5 mm
11:10 PM 30.4°F-0.9°C 28.9°F-1.7°C 94% 4.6 mph NNE7.4 kmh NNE 4.6 mph7.4 kmh 29.19 in988.5 mb - 0.00 in0.0 mm 0.10 in2.5 mm
11:15 PM 30.4°F-0.9°C 28.9°F-1.7°C 94% 5.8 mph NE9.3 kmh NE 6.9 mph11.1 kmh 29.19 in988.5 mb - 0.00 in0.0 mm 0.10 in2.5 mm
11:20 PM 30.4°F-0.9°C 28.9°F-1.7°C 94% 4.6 mph NNE7.4 kmh NNE 4.6 mph7.4 kmh 29.19 in988.5 mb - 0.00 in0.0 mm 0.10 in2.5 mm
11:25 PM 30.4°F-0.9°C 28.9°F-1.7°C 94% 3.5 mph ENE5.6 kmh ENE 3.5 mph5.6 kmh 29.19 in988.5 mb - 0.00 in0.0 mm 0.10 in2.5 mm
11:30 PM 30.4°F-0.9°C 28.9°F-1.7°C 94% 5.8 mph NNE9.3 kmh NNE 8.1 mph13.0 kmh 29.20 in988.8 mb - 0.00 in0.0 mm 0.10 in2.5 mm
11:35 PM 30.4°F-0.9°C 28.9°F-1.7°C 94% 4.6 mph NNE7.4 kmh NNE 5.8 mph9.3 kmh 29.20 in988.8 mb - 0.00 in0.0 mm 0.10 in2.5 mm
11:40 PM 30.4°F-0.9°C 28.9°F-1.7°C 94% 3.5 mph NNE5.6 kmh NNE 3.5 mph5.6 kmh 29.20 in988.8 mb - 0.00 in0.0 mm 0.10 in2.5 mm
11:45 PM 30.4°F-0.9°C 28.9°F-1.7°C 94% 3.5 mph NNE5.6 kmh NNE 3.5 mph5.6 kmh 29.19 in988.5 mb - 0.00 in0.0 mm 0.10 in2.5 mm
11:50 PM 30.4°F-0.9°C 28.9°F-1.7°C 94% 4.6 mph NNE7.4 kmh NNE 4.6 mph7.4 kmh 29.19 in988.5 mb - 0.00 in0.0 mm 0.10 in2.5 mm
11:55 PM 30.4°F-0.9°C 28.9°F-1.7°C 94% 3.5 mph NNE5.6 kmh NNE 3.5 mph5.6 kmh 29.19 in988.5 mb - 0.00 in0.0 mm 0.10 in2.5 mm